createdAt,value
2019-01-11T00:01:23.849Z,11.60
2019-01-11T00:03:50.583Z,11.80
2019-01-11T00:06:18.416Z,11.90
2019-01-11T00:08:45.058Z,11.90
2019-01-11T00:11:11.850Z,12.00
2019-01-11T00:13:38.505Z,12.00
2019-01-11T00:16:05.200Z,12.00
2019-01-11T00:18:31.976Z,11.90
2019-01-11T00:20:58.659Z,12.00
2019-01-11T00:23:25.719Z,12.10
2019-01-11T00:25:52.512Z,12.00
2019-01-11T00:28:19.651Z,12.00
2019-01-11T00:30:46.816Z,12.10
2019-01-11T00:33:14.066Z,11.70
2019-01-11T00:35:41.185Z,11.60
2019-01-11T00:38:07.904Z,11.80
2019-01-11T00:40:35.080Z,11.80
2019-01-11T00:43:02.129Z,11.90
2019-01-11T00:45:29.789Z,11.90
2019-01-11T00:47:56.946Z,12.00
2019-01-11T00:50:24.087Z,12.20
2019-01-11T00:52:51.118Z,12.20
2019-01-11T00:55:18.281Z,12.10
2019-01-11T00:57:45.441Z,12.10
2019-01-11T01:00:12.485Z,12.10
2019-01-11T01:02:39.226Z,12.20
2019-01-11T01:05:06.383Z,12.40
2019-01-11T01:07:33.085Z,12.40
2019-01-11T01:10:00.246Z,12.50
2019-01-11T01:12:27.318Z,12.50
2019-01-11T01:14:54.003Z,12.40
2019-01-11T01:17:20.727Z,12.50
2019-01-11T01:19:48.618Z,12.60
2019-01-11T01:22:15.375Z,12.40
2019-01-11T01:24:42.104Z,12.50
2019-01-11T01:27:08.811Z,12.50
2019-01-11T01:29:35.499Z,12.50
2019-01-11T01:32:03.383Z,12.50
2019-01-11T01:34:30.043Z,12.60
2019-01-11T01:36:57.018Z,12.70
2019-01-11T01:39:24.235Z,12.80
2019-01-11T01:41:51.380Z,12.80
2019-01-11T01:44:18.527Z,12.70
2019-01-11T01:46:45.697Z,12.60
2019-01-11T01:49:12.837Z,12.50
2019-01-11T01:51:39.515Z,12.50
2019-01-11T01:54:06.599Z,12.50
2019-01-11T01:56:33.664Z,12.50
2019-01-11T01:59:00.335Z,12.40
2019-01-11T02:01:27.854Z,12.50
2019-01-11T02:03:54.892Z,12.60
2019-01-11T02:06:21.627Z,12.70
2019-01-11T02:08:48.823Z,12.80
2019-01-11T02:11:15.832Z,12.90
2019-01-11T02:13:43.005Z,12.80
2019-01-11T02:16:09.781Z,12.80
2019-01-11T02:18:36.876Z,12.70
2019-01-11T02:21:04.000Z,12.80
2019-01-11T02:23:31.200Z,12.80
2019-01-11T02:25:57.850Z,12.80
2019-01-11T02:28:25.006Z,12.80
2019-01-11T02:30:52.973Z,12.80
2019-01-11T02:33:24.853Z,12.80
2019-01-11T02:35:48.767Z,12.90
2019-01-11T02:38:15.965Z,12.90
2019-01-11T02:40:43.068Z,12.70
2019-01-11T02:43:10.115Z,12.60
2019-01-11T02:45:37.285Z,12.50
2019-01-11T02:48:04.462Z,12.50
2019-01-11T02:50:31.174Z,12.70
2019-01-11T02:52:58.350Z,12.50
2019-01-11T02:55:25.035Z,12.40
2019-01-11T02:57:52.136Z,12.40
2019-01-11T03:00:19.304Z,12.50
2019-01-11T03:02:46.470Z,12.50
2019-01-11T03:05:13.159Z,12.40
2019-01-11T03:07:40.269Z,12.40
2019-01-11T03:10:06.930Z,12.50
2019-01-11T03:12:33.680Z,12.60
2019-01-11T03:15:00.399Z,12.60
2019-01-11T03:17:27.472Z,12.50
2019-01-11T03:19:54.528Z,12.30
2019-01-11T03:22:21.675Z,12.00
2019-01-11T03:24:48.398Z,12.00
2019-01-11T03:27:15.457Z,11.90
2019-01-11T03:29:42.610Z,11.90
2019-01-11T03:32:09.762Z,11.80
2019-01-11T03:34:36.815Z,11.50
2019-01-11T03:37:03.588Z,11.20
2019-01-11T03:39:30.694Z,11.40
2019-01-11T03:41:57.384Z,11.70
2019-01-11T03:44:24.586Z,11.90
2019-01-11T03:46:51.271Z,12.10
2019-01-11T03:49:17.962Z,12.10
2019-01-11T03:51:44.700Z,12.20
2019-01-11T03:54:11.367Z,12.20
2019-01-11T03:56:38.082Z,12.10
2019-01-11T03:59:05.320Z,11.90
2019-01-11T04:01:32.033Z,11.80
2019-01-11T04:03:59.140Z,11.80
2019-01-11T04:06:25.862Z,11.80
2019-01-11T04:08:52.929Z,11.70
2019-01-11T04:11:19.966Z,11.90
2019-01-11T04:13:47.765Z,12.10
2019-01-11T04:16:14.675Z,12.10
2019-01-11T04:18:41.701Z,12.30
2019-01-11T04:21:08.879Z,12.40
2019-01-11T04:23:35.920Z,12.60
2019-01-11T04:26:02.981Z,12.50
2019-01-11T04:28:29.770Z,12.50
2019-01-11T04:30:56.480Z,12.40
2019-01-11T04:33:23.189Z,12.50
2019-01-11T04:35:50.335Z,12.60
2019-01-11T04:38:17.022Z,12.70
2019-01-11T04:40:44.131Z,12.80
2019-01-11T04:43:10.862Z,12.80
2019-01-11T04:45:37.935Z,12.90
2019-01-11T04:48:04.603Z,12.80
2019-01-11T04:50:32.097Z,12.90
2019-01-11T04:52:59.724Z,12.80
2019-01-11T04:55:26.382Z,12.80
2019-01-11T04:57:53.568Z,12.90
2019-01-11T05:00:20.239Z,13.00
2019-01-11T05:02:47.357Z,12.90
2019-01-11T05:05:14.536Z,12.90
2019-01-11T05:07:41.181Z,12.70
2019-01-11T05:10:07.881Z,12.60
2019-01-11T05:12:35.041Z,12.70
2019-01-11T05:15:01.698Z,12.80
2019-01-11T05:17:28.384Z,12.80
2019-01-11T05:19:55.566Z,12.90
2019-01-11T05:22:22.723Z,12.90
2019-01-11T05:24:49.376Z,12.90
2019-01-11T05:27:16.607Z,12.90
2019-01-11T05:29:43.659Z,12.90
2019-01-11T05:32:10.379Z,13.00
2019-01-11T05:34:37.743Z,12.70
2019-01-11T05:37:04.443Z,12.70
2019-01-11T05:39:31.572Z,12.60
2019-01-11T05:41:59.230Z,12.70
2019-01-11T05:44:26.331Z,12.80
2019-01-11T05:46:53.399Z,12.80
2019-01-11T05:49:20.571Z,13.00
2019-01-11T05:51:47.215Z,13.10
2019-01-11T05:54:14.349Z,12.90
2019-01-11T05:56:41.081Z,12.90
2019-01-11T05:59:07.792Z,12.70
2019-01-11T06:01:34.888Z,12.80
2019-01-11T06:04:01.997Z,12.90
2019-01-11T06:06:29.038Z,12.90
2019-01-11T06:08:56.132Z,12.70
2019-01-11T06:11:23.248Z,12.70
2019-01-11T06:13:49.981Z,12.80
2019-01-11T06:16:17.045Z,12.90
2019-01-11T06:18:44.231Z,12.80
2019-01-11T06:21:12.014Z,12.80
2019-01-11T06:23:38.671Z,12.70
2019-01-11T06:26:05.834Z,12.70
2019-01-11T06:28:33.691Z,12.80
2019-01-11T06:31:00.375Z,12.60
2019-01-11T06:33:27.095Z,12.60
2019-01-11T06:35:54.068Z,12.50
2019-01-11T06:38:21.855Z,12.50
2019-01-11T06:40:48.588Z,12.40
2019-01-11T06:43:15.725Z,12.40
2019-01-11T06:45:42.735Z,12.20
2019-01-11T06:48:09.464Z,12.10
2019-01-11T06:50:37.207Z,12.40
2019-01-11T06:53:03.897Z,12.30
2019-01-11T06:55:31.707Z,12.50
2019-01-11T06:57:58.815Z,12.60
2019-01-11T07:00:25.920Z,12.60
2019-01-11T07:02:52.686Z,12.60
2019-01-11T07:05:19.753Z,12.60
2019-01-11T07:07:47.561Z,12.60
2019-01-11T07:10:14.637Z,12.60
2019-01-11T07:12:41.321Z,12.60
2019-01-11T07:15:08.009Z,12.60
2019-01-11T07:17:34.733Z,12.20
2019-01-11T07:20:05.537Z,12.00
2019-01-11T07:22:30.705Z,11.80
2019-01-11T07:24:57.874Z,11.90
2019-01-11T07:27:24.533Z,12.20
2019-01-11T07:29:51.262Z,12.50
2019-01-11T07:32:18.406Z,12.60
2019-01-11T07:34:45.158Z,12.70
2019-01-11T07:37:11.875Z,12.70
2019-01-11T07:39:38.791Z,12.30
2019-01-11T07:42:06.511Z,12.00
2019-01-11T07:44:34.133Z,11.50
2019-01-11T07:47:00.861Z,11.20
2019-01-11T07:49:27.921Z,11.00
2019-01-11T07:51:55.070Z,11.10
2019-01-11T07:54:22.888Z,11.40
2019-01-11T07:56:50.007Z,11.50
2019-01-11T07:59:17.036Z,11.40
2019-01-11T08:01:44.619Z,11.40
2019-01-11T08:04:11.767Z,11.10
2019-01-11T08:06:38.816Z,11.20
2019-01-11T08:09:05.969Z,11.00
2019-01-11T08:11:33.668Z,10.80
2019-01-11T08:14:00.805Z,10.60
2019-01-11T08:16:27.557Z,10.60
2019-01-11T08:18:54.665Z,10.80
2019-01-11T08:21:21.362Z,10.90
2019-01-11T08:23:48.557Z,11.10
2019-01-11T08:26:15.228Z,11.40
2019-01-11T08:28:42.375Z,11.50
2019-01-11T08:31:10.185Z,11.20
2019-01-11T08:33:36.855Z,11.10
2019-01-11T08:36:50.557Z,11.50
2019-01-11T08:38:32.677Z,11.60
2019-01-11T08:40:59.729Z,11.60
2019-01-11T08:43:26.802Z,11.50
2019-01-11T08:45:58.383Z,11.10
2019-01-11T08:48:41.495Z,10.90
2019-01-11T08:50:53.765Z,10.90
2019-01-11T08:53:21.344Z,10.70
2019-01-11T08:55:48.031Z,10.50
2019-01-11T08:58:15.110Z,10.60
2019-01-11T09:00:42.267Z,10.80
2019-01-11T09:03:10.132Z,11.30
2019-01-11T09:05:37.968Z,11.50
2019-01-11T09:08:05.141Z,11.70
2019-01-11T09:10:31.876Z,11.70
2019-01-11T09:12:58.991Z,11.40
2019-01-11T09:15:26.269Z,10.90
2019-01-11T09:17:53.348Z,10.80
2019-01-11T09:20:20.512Z,10.50
2019-01-11T09:22:47.275Z,10.50
2019-01-11T09:25:14.407Z,10.20
2019-01-11T09:27:42.198Z,10.50
2019-01-11T09:30:10.062Z,10.40
2019-01-11T09:32:37.834Z,10.20
2019-01-11T09:35:05.601Z,10.60
2019-01-11T09:37:34.056Z,10.40
2019-01-11T09:40:01.180Z,9.90
2019-01-11T09:42:28.979Z,10.00
2019-01-11T09:44:56.855Z,10.20
2019-01-11T09:47:23.932Z,9.60
2019-01-11T09:49:50.595Z,9.50
2019-01-11T09:52:18.330Z,10.00
2019-01-11T09:54:46.177Z,10.00
2019-01-11T09:57:13.951Z,10.20
2019-01-11T09:59:42.842Z,10.50
2019-01-11T10:02:10.605Z,10.70
2019-01-11T10:04:37.747Z,11.40
2019-01-11T10:07:05.502Z,11.90
2019-01-11T10:09:34.374Z,11.70
2019-01-11T10:12:01.332Z,10.90
2019-01-11T10:14:30.585Z,10.10
2019-01-11T10:16:57.777Z,9.80
2019-01-11T10:19:24.896Z,10.10
2019-01-11T10:21:53.418Z,10.60
2019-01-11T10:24:20.538Z,11.10
2019-01-11T10:26:54.199Z,10.90
2019-01-11T10:29:22.037Z,10.50
2019-01-11T10:31:49.685Z,10.40
2019-01-11T10:34:17.322Z,10.70
2019-01-11T10:36:45.249Z,10.60
2019-01-11T10:39:12.202Z,10.70
2019-01-11T10:41:39.945Z,11.10
2019-01-11T10:44:07.026Z,11.50
2019-01-11T10:46:34.157Z,11.10
2019-01-11T10:49:01.291Z,10.90
2019-01-11T10:51:29.169Z,10.70
2019-01-11T10:53:56.258Z,10.00
2019-01-11T10:56:24.071Z,9.90
2019-01-11T10:58:51.231Z,10.40
2019-01-11T11:01:19.007Z,10.80
2019-01-11T11:03:46.149Z,10.10
2019-01-11T11:06:14.871Z,10.20
2019-01-11T11:08:42.338Z,10.90
2019-01-11T11:11:09.467Z,11.60
2019-01-11T11:13:36.638Z,11.80
2019-01-11T11:16:04.468Z,11.50
2019-01-11T11:18:31.179Z,11.10
2019-01-11T11:20:58.293Z,10.50
2019-01-11T11:23:25.014Z,10.20
2019-01-11T11:25:51.725Z,10.00
2019-01-11T11:28:18.404Z,9.90
2019-01-11T11:30:54.857Z,9.90
2019-01-11T11:33:36.903Z,10.00
2019-01-11T11:35:54.687Z,9.70
2019-01-11T11:38:21.700Z,9.60
2019-01-11T11:40:48.809Z,10.10
2019-01-11T11:43:15.499Z,10.30
2019-01-11T11:45:42.627Z,10.50
2019-01-11T11:48:10.181Z,10.20
2019-01-11T11:50:37.238Z,9.60
2019-01-11T11:53:04.300Z,9.30
2019-01-11T11:55:31.782Z,9.80
2019-01-11T11:57:58.835Z,10.00
2019-01-11T12:00:25.851Z,9.20
2019-01-11T12:02:52.948Z,9.40
2019-01-11T12:05:19.982Z,10.10
2019-01-11T12:07:46.994Z,9.90
2019-01-11T12:10:14.222Z,10.30
2019-01-11T12:12:41.379Z,10.10
2019-01-11T12:15:09.174Z,10.40
2019-01-11T12:17:36.362Z,10.60
2019-01-11T12:20:03.391Z,9.80
2019-01-11T12:22:31.069Z,9.90
2019-01-11T12:24:58.209Z,10.00
2019-01-11T12:27:25.884Z,9.80
2019-01-11T12:29:52.813Z,9.40
2019-01-11T12:32:19.931Z,9.70
2019-01-11T12:34:47.028Z,9.60
2019-01-11T12:37:14.002Z,9.40
2019-01-11T12:39:41.487Z,9.00
2019-01-11T12:42:08.532Z,9.40
2019-01-11T12:44:36.237Z,9.40
2019-01-11T12:47:04.106Z,9.10
2019-01-11T12:49:31.161Z,8.90
2019-01-11T12:51:58.656Z,8.80
2019-01-11T12:54:26.377Z,9.10
2019-01-11T12:56:53.336Z,9.30
2019-01-11T12:59:20.998Z,9.00
2019-01-11T13:01:48.088Z,9.30
2019-01-11T13:04:15.837Z,9.60
2019-01-11T13:06:54.388Z,10.00
2019-01-11T13:09:21.505Z,9.90
2019-01-11T13:11:49.233Z,10.20
2019-01-11T13:14:16.336Z,10.40
2019-01-11T13:16:47.352Z,10.80
2019-01-11T13:19:14.439Z,10.50
2019-01-11T13:21:41.137Z,10.30
2019-01-11T13:24:08.755Z,10.00
2019-01-11T13:26:36.535Z,10.40
2019-01-11T13:29:03.671Z,10.20
2019-01-11T13:31:31.579Z,10.10
2019-01-11T13:33:58.530Z,10.80
2019-01-11T13:36:25.655Z,11.60
2019-01-11T13:38:53.520Z,11.90
2019-01-11T13:41:20.372Z,11.60
2019-01-11T13:43:47.446Z,11.60
2019-01-11T13:46:15.567Z,11.60
2019-01-11T13:48:42.695Z,11.90
2019-01-11T13:51:10.519Z,11.90
2019-01-11T13:53:38.245Z,11.80
2019-01-11T13:56:05.345Z,11.20
2019-01-11T13:58:33.080Z,10.80
2019-01-11T14:01:00.359Z,10.10
2019-01-11T14:03:27.438Z,10.10
2019-01-11T14:05:55.124Z,10.00
2019-01-11T14:08:23.005Z,10.30
2019-01-11T14:13:41.363Z,11.10
2019-01-11T14:16:08.538Z,11.30
2019-01-11T14:18:35.631Z,11.60
2019-01-11T14:21:02.424Z,11.60
2019-01-11T14:23:29.546Z,11.50
2019-01-11T14:25:56.223Z,11.40
2019-01-11T14:28:22.987Z,10.80
2019-01-11T14:30:50.053Z,10.80
2019-01-11T14:33:16.778Z,11.00
2019-01-11T14:35:48.191Z,11.30
2019-01-11T14:38:19.549Z,11.50
2019-01-11T14:40:43.721Z,11.50
2019-01-11T14:43:11.612Z,10.90
2019-01-11T14:45:40.172Z,11.10
2019-01-11T14:48:07.477Z,11.20
2019-01-11T14:50:36.148Z,11.00
2019-01-11T14:53:03.345Z,10.80
2019-01-11T14:55:30.028Z,11.10
2019-01-11T14:57:56.780Z,11.20
2019-01-11T15:00:24.075Z,11.00
2019-01-11T15:02:52.062Z,11.10
2019-01-11T15:05:20.028Z,11.40
2019-01-11T15:07:47.137Z,11.40
2019-01-11T15:10:13.820Z,11.00
2019-01-11T15:12:40.567Z,10.50
2019-01-11T15:15:08.346Z,10.00
2019-01-11T15:17:35.464Z,10.30
2019-01-11T15:20:02.616Z,10.30
2019-01-11T15:22:29.789Z,10.10
2019-01-11T15:24:57.034Z,10.50
2019-01-11T15:27:23.722Z,10.80
2019-01-11T15:29:51.546Z,10.80
2019-01-11T15:32:18.825Z,10.90
2019-01-11T15:34:45.539Z,10.70
2019-01-11T15:37:12.649Z,10.60
2019-01-11T15:39:39.838Z,10.20
2019-01-11T15:42:06.750Z,10.60
2019-01-11T15:44:33.763Z,10.90
2019-01-11T15:47:01.026Z,10.90
2019-01-11T15:49:28.050Z,10.70
2019-01-11T15:51:55.899Z,10.80
2019-01-11T15:54:23.045Z,10.40
2019-01-11T15:56:49.733Z,10.40
2019-01-11T15:59:16.807Z,10.50
2019-01-11T16:01:43.530Z,10.80
2019-01-11T16:04:10.450Z,10.80
2019-01-11T16:06:37.213Z,10.60
2019-01-11T16:09:04.060Z,10.30
2019-01-11T16:11:31.073Z,10.20
2019-01-11T16:13:57.852Z,10.00
2019-01-11T16:16:24.926Z,10.10
2019-01-11T16:18:51.593Z,10.50
2019-01-11T16:21:18.383Z,11.10
2019-01-11T16:23:45.587Z,11.20
2019-01-11T16:26:12.257Z,11.00
2019-01-11T16:28:39.636Z,10.60
2019-01-11T16:31:07.414Z,10.60
2019-01-11T16:33:35.294Z,10.50
2019-01-11T16:36:02.493Z,10.70
2019-01-11T16:38:29.194Z,10.50
2019-01-11T16:40:57.228Z,9.60
2019-01-11T16:43:24.361Z,9.90
2019-01-11T16:45:51.329Z,10.00
2019-01-11T16:48:19.521Z,9.80
2019-01-11T16:50:46.829Z,9.80
2019-01-11T16:53:13.985Z,10.00
2019-01-11T16:55:41.083Z,10.10
2019-01-11T16:58:09.039Z,10.10
2019-01-11T17:00:36.144Z,10.10
2019-01-11T17:03:03.354Z,10.00
2019-01-11T17:05:30.567Z,9.70
2019-01-11T17:07:57.613Z,9.70
2019-01-11T17:10:24.772Z,10.20
2019-01-11T17:12:51.900Z,10.20
2019-01-11T17:15:18.587Z,10.40
2019-01-11T17:17:45.240Z,10.00
2019-01-11T17:20:12.457Z,10.00
2019-01-11T17:22:39.119Z,9.80
2019-01-11T17:25:06.337Z,9.90
2019-01-11T17:27:33.116Z,9.60
2019-01-11T17:29:59.851Z,9.00
2019-01-11T17:32:27.020Z,9.30
2019-01-11T17:34:55.164Z,9.70
2019-01-11T17:37:22.328Z,9.90
2019-01-11T17:39:49.174Z,9.70
2019-01-11T17:42:16.314Z,9.30
2019-01-11T17:44:43.418Z,9.30
2019-01-11T17:47:10.579Z,9.50
2019-01-11T17:49:37.611Z,9.70
2019-01-11T17:52:05.452Z,9.80
2019-01-11T17:54:32.662Z,9.80
2019-01-11T17:56:59.317Z,9.90
2019-01-11T17:59:26.431Z,10.00
2019-01-11T18:01:53.154Z,10.40
2019-01-11T18:04:19.884Z,10.00
2019-01-11T18:06:46.948Z,9.80
2019-01-11T18:09:20.650Z,9.50
2019-01-11T18:11:48.468Z,9.40
2019-01-11T18:14:23.544Z,9.20
2019-01-11T18:16:48.085Z,9.50
2019-01-11T18:19:15.867Z,9.50
2019-01-11T18:21:42.630Z,9.50
2019-01-11T18:24:11.632Z,10.00
2019-01-11T18:26:42.949Z,9.80
2019-01-11T18:29:09.665Z,10.10
2019-01-11T18:31:42.015Z,10.30
2019-01-11T18:34:11.423Z,9.90
2019-01-11T18:36:37.417Z,9.60
2019-01-11T18:39:25.082Z,8.90
2019-01-11T18:41:52.982Z,8.60
2019-01-11T18:44:20.129Z,8.80
2019-01-11T18:46:49.309Z,8.80
2019-01-11T18:49:22.722Z,8.90
2019-01-11T18:51:45.374Z,8.70
2019-01-11T18:54:12.526Z,8.40
2019-01-11T18:56:48.663Z,8.30
2019-01-11T18:59:15.674Z,7.80
2019-01-11T19:01:42.882Z,8.30
2019-01-11T19:04:13.971Z,9.00
2019-01-11T19:06:40.638Z,9.40
2019-01-11T19:09:07.853Z,9.50
2019-01-11T19:11:35.102Z,9.00
2019-01-11T19:14:01.789Z,8.50
2019-01-11T19:16:29.547Z,8.70
2019-01-11T19:18:56.272Z,8.70
2019-01-11T19:21:26.070Z,8.60
2019-01-11T19:23:55.117Z,9.20
2019-01-11T19:26:22.299Z,9.50
2019-01-11T19:28:49.966Z,9.50
2019-01-11T19:31:17.112Z,9.60
2019-01-11T19:33:44.314Z,8.90
2019-01-11T19:36:11.948Z,8.80
2019-01-11T19:38:39.126Z,8.20
2019-01-11T19:41:06.746Z,7.70
2019-01-11T19:43:38.544Z,8.00
2019-01-11T19:46:05.683Z,8.30
2019-01-11T19:48:32.416Z,8.20
2019-01-11T19:50:59.818Z,7.90
2019-01-11T19:53:27.667Z,7.40
2019-01-11T19:55:58.766Z,7.20
2019-01-11T19:58:27.154Z,7.10
2019-01-11T20:00:54.341Z,7.10
2019-01-11T20:03:21.355Z,7.50
2019-01-11T20:06:06.513Z,7.60
2019-01-11T20:08:36.380Z,7.90
2019-01-11T20:11:03.586Z,7.80
2019-01-11T20:16:14.788Z,7.70
2019-01-11T20:18:41.484Z,7.50
2019-01-11T20:21:08.528Z,8.10
2019-01-11T20:23:36.966Z,8.30
2019-01-11T20:26:03.764Z,8.10
2019-01-11T20:28:30.489Z,8.30
2019-01-11T20:30:57.221Z,8.40
2019-01-11T20:33:24.287Z,8.30
2019-01-11T20:35:51.329Z,9.00
2019-01-11T20:38:18.458Z,9.10
2019-01-11T20:40:45.157Z,9.10
2019-01-11T20:43:13.013Z,8.40
2019-01-11T20:45:40.134Z,8.40
2019-01-11T20:48:07.291Z,8.60
2019-01-11T20:50:35.057Z,8.10
2019-01-11T20:53:02.137Z,8.30
2019-01-11T20:55:28.803Z,8.70
2019-01-11T20:57:55.592Z,8.00
2019-01-11T21:00:23.412Z,7.60
2019-01-11T21:02:50.086Z,7.50
2019-01-11T21:05:17.240Z,7.30
2019-01-11T21:07:44.012Z,7.50
2019-01-11T21:10:11.029Z,7.70
2019-01-11T21:12:38.177Z,7.80
2019-01-11T21:15:05.237Z,8.30
2019-01-11T21:17:32.402Z,8.50
2019-01-11T21:19:59.520Z,8.70
2019-01-11T21:22:26.239Z,9.00
2019-01-11T21:24:59.984Z,8.90
2019-01-11T21:27:23.408Z,8.70
2019-01-11T21:29:51.225Z,8.80
2019-01-11T21:32:18.405Z,8.80
2019-01-11T21:34:45.096Z,9.10
2019-01-11T21:37:12.265Z,8.70
2019-01-11T21:39:39.454Z,8.50
2019-01-11T21:42:06.545Z,8.20
2019-01-11T21:44:33.619Z,7.90
2019-01-11T21:47:00.311Z,8.10
2019-01-11T21:49:27.510Z,8.80
2019-01-11T21:51:55.294Z,8.80
2019-01-11T21:54:22.034Z,8.90
2019-01-11T21:56:49.195Z,8.70
2019-01-11T21:59:15.849Z,8.90
2019-01-11T22:01:42.541Z,9.40
2019-01-11T22:04:09.261Z,9.50
2019-01-11T22:06:36.527Z,9.20
2019-01-11T22:09:03.230Z,9.30
2019-01-11T22:11:30.318Z,9.20
2019-01-11T22:13:57.075Z,9.10
2019-01-11T22:16:24.184Z,9.20
2019-01-11T22:18:51.245Z,9.00
2019-01-11T22:21:18.515Z,9.40
2019-01-11T22:23:45.671Z,9.40
2019-01-11T22:26:12.813Z,9.30
2019-01-11T22:28:39.602Z,9.40
2019-01-11T22:31:06.274Z,9.40
2019-01-11T22:33:32.960Z,9.60
2019-01-11T22:36:00.163Z,9.10
2019-01-11T22:38:27.219Z,9.20
2019-01-11T22:40:54.391Z,9.50
2019-01-11T22:43:21.505Z,10.30
2019-01-11T22:45:48.680Z,10.40
2019-01-11T22:48:15.808Z,10.70
2019-01-11T22:50:42.956Z,10.90
2019-01-11T22:53:09.988Z,11.00
2019-01-11T22:55:37.714Z,11.30
2019-01-11T22:58:04.543Z,11.10
2019-01-11T23:00:31.538Z,11.10
2019-01-11T23:02:58.620Z,11.10
2019-01-11T23:05:25.337Z,11.10
2019-01-11T23:07:52.057Z,11.10
2019-01-11T23:10:18.763Z,10.90
2019-01-11T23:12:45.512Z,10.30
2019-01-11T23:15:12.639Z,10.00
2019-01-11T23:17:39.893Z,10.20
2019-01-11T23:20:07.045Z,10.70
2019-01-11T23:22:34.007Z,10.80
2019-01-11T23:25:00.790Z,10.50
2019-01-11T23:27:27.881Z,9.80
2019-01-11T23:29:55.692Z,10.10
2019-01-11T23:32:22.464Z,10.20
2019-01-11T23:34:49.179Z,10.20
2019-01-11T23:37:15.903Z,10.50
2019-01-11T23:39:42.691Z,10.70
2019-01-11T23:42:09.871Z,10.40
2019-01-11T23:44:36.578Z,10.40
2019-01-11T23:47:03.363Z,10.70
2019-01-11T23:49:30.071Z,11.10
2019-01-11T23:51:57.234Z,11.50
2019-01-11T23:54:24.576Z,11.80
2019-01-11T23:56:51.535Z,11.60
2019-01-11T23:59:18.685Z,11.50
